Gulf Bridge — A8JM5 — position and weather

sailwx.info

Track history (hours):
 
Tides and Currents Weather Stations Pressure Air Temp Water Temp Dewpoint Dewpoint Depression Visibility Wind Speed Wind Dir Waves Ship Positions

Gulf Bridge

Last reported at 2016-Apr-18 22:32 UTC. Time now 2016-May-01 04:18 UTC.
Position N 01°16' E 104°13'.
Warning: this ship's position is 12 days out of date.

Length 213 m; beam 32.2 m; draft 11.5 m.

Type: Cargo ship. MMSI: 636091115.

Date/timePositionNaut miles runAvg speedWind from/ knotsBaromVisibWave heightAir tempDewpointWater temp
2016-Apr-18 22:32N 01°16' E 104°13'1616.6
2016-Apr-18 21:33N 01°13' E 103°57'1514.7
2016-Apr-18 20:34N 01°06' E 103°44'1212.0
2016-Apr-18 19:33N 01°07' E 103°32'7416.5
2016-Apr-18 15:06N 01°47' E 102°30'917.4
2016-Apr-18 14:33N 01°51' E 102°21'1817.5
2016-Apr-18 13:31N 02°01' E 102°07'1817.9
2016-Apr-18 12:33N 02°13' E 101°54'2018.5
2016-Apr-18 11:28N 02°25' E 101°38'  
2016-Apr-12 17:33N 02°05' E 102°08'9 9.3
2016-Apr-12 16:33N 01°59' E 102°15'9 9.1
2016-Apr-12 15:33N 01°54' E 102°23'9 9.4
2016-Apr-12 14:33N 01°50' E 102°32'10 9.7
2016-Apr-12 13:29N 01°46' E 102°41'5210.5
2016-Apr-12 08:31N 01°16' E 103°24'9 9.2
2016-Apr-12 07:33N 01°13' E 103°32'1312.7
2016-Apr-12 06:33N 01°09' E 103°44'1515.4
2016-Apr-12 05:33N 01°15' E 103°58'  
Track history (hours):
 
Tides and Currents Weather Stations Pressure Air Temp Water Temp Dewpoint Dewpoint Depression Visibility Wind Speed Wind Dir Waves Ship Positions

Gulf Bridge

Last reported at 2016-Apr-18 22:32 UTC. Time now 2016-May-01 04:18 UTC.
Position N 01°16' E 104°13'.
Warning: this ship's position is 12 days out of date.

Length 213 m; beam 32.2 m; draft 11.5 m.

Type: Cargo ship. MMSI: 636091115.

Date/timePositionNaut miles runAvg speedWind from/ knotsBaromVisibWave heightAir tempDewpointWater temp
2016-Apr-18 22:32N 01°16' E 104°13'1616.6
2016-Apr-18 21:33N 01°13' E 103°57'1514.7
2016-Apr-18 20:34N 01°06' E 103°44'1212.0
2016-Apr-18 19:33N 01°07' E 103°32'7416.5
2016-Apr-18 15:06N 01°47' E 102°30'917.4
2016-Apr-18 14:33N 01°51' E 102°21'1817.5
2016-Apr-18 13:31N 02°01' E 102°07'1817.9
2016-Apr-18 12:33N 02°13' E 101°54'2018.5
2016-Apr-18 11:28N 02°25' E 101°38'  
2016-Apr-12 17:33N 02°05' E 102°08'9 9.3
2016-Apr-12 16:33N 01°59' E 102°15'9 9.1
2016-Apr-12 15:33N 01°54' E 102°23'9 9.4
2016-Apr-12 14:33N 01°50' E 102°32'10 9.7
2016-Apr-12 13:29N 01°46' E 102°41'5210.5
2016-Apr-12 08:31N 01°16' E 103°24'9 9.2
2016-Apr-12 07:33N 01°13' E 103°32'1312.7
2016-Apr-12 06:33N 01°09' E 103°44'1515.4
2016-Apr-12 05:33N 01°15' E 103°58'  

Dump ship's entire track history